Time;durP1;ratioP1;P1;durP2;ratioP2;P2;SDS_P1;SDS_P2;PMS_P1;PMS_P2;Temp;Humidity;BMP_temperature;BMP_pressure;BME280_temperature;BME280_humidity;BME280_pressure;Samples;Min_cycle;Max_cycle;Signal;HPM_P1;HPM_P2
2022/07/09 00:00:06;;;;;;;;;7.75;7.75;;;29.89;97743.52;;;;118959;1190;25236;-65
2022/07/09 00:02:54;;;;;;;;;7.50;7.50;;;29.96;97739.48;;;;118933;1189;24964;-66
2022/07/09 00:05:21;;;;;;;;;7.50;5.75;;;29.96;97737.86;;;;118950;1190;25977;-66
2022/07/09 00:07:49;;;;;;;;;7.50;7.25;;;29.93;97732.93;;;;118980;1188;24758;-64
2022/07/09 00:10:17;;;;;;;;;9.75;6.75;;;29.92;97736.71;;;;118983;1189;26161;-65
2022/07/09 00:12:45;;;;;;;;;8.00;8.00;;;29.91;97732.58;;;;118962;1189;25289;-65
2022/07/09 00:15:13;;;;;;;;;9.50;8.75;;;29.90;97730.42;;;;118999;1189;25439;-65
2022/07/09 00:17:41;;;;;;;;;9.75;8.25;;;29.88;97728.64;;;;118992;1189;25898;-65
2022/07/09 00:20:10;;;;;;;;;7.50;7.50;;;29.88;97731.05;;;;118979;1190;24973;-65
2022/07/09 00:22:37;;;;;;;;;5.25;5.25;;;29.88;97729.02;;;;118981;1189;25064;-65
2022/07/09 00:25:06;;;;;;;;;8.50;6.50;;;29.88;97729.71;;;;118961;1189;25278;-65
2022/07/09 00:27:34;;;;;;;;;7.00;5.25;;;29.88;97730.98;;;;118997;1189;25622;-65
2022/07/09 00:30:02;;;;;;;;;7.75;7.00;;;29.87;97729.39;;;;118975;1189;25644;-65
2022/07/09 00:32:30;;;;;;;;;9.50;7.50;;;29.87;97726.17;;;;118995;1189;25617;-64
2022/07/09 00:34:58;;;;;;;;;6.25;5.00;;;29.87;97723.30;;;;118993;1190;25454;-64
2022/07/09 00:37:26;;;;;;;;;9.25;7.75;;;29.86;97724.32;;;;118981;1189;25662;-65
2022/07/09 00:39:53;;;;;;;;;8.00;7.00;;;29.86;97723.42;;;;118985;1189;25733;-65
2022/07/09 00:42:21;;;;;;;;;9.00;7.50;;;29.85;97727.75;;;;119011;1189;25821;-65
2022/07/09 00:44:49;;;;;;;;;8.50;6.50;;;29.85;97724.29;;;;119024;1189;24898;-65
2022/07/09 00:47:17;;;;;;;;;9.00;6.25;;;29.85;97720.34;;;;118995;1189;26463;-64
2022/07/09 00:49:45;;;;;;;;;7.25;6.25;;;29.84;97719.63;;;;118969;1189;25292;-65
2022/07/09 00:52:14;;;;;;;;;8.75;6.50;;;29.84;97717.54;;;;118975;1189;24886;-65
2022/07/09 00:54:42;;;;;;;;;8.00;8.00;;;29.84;97717.19;;;;118976;1189;25392;-65
2022/07/09 00:57:10;;;;;;;;;7.00;7.00;;;29.85;97717.09;;;;118975;1190;26320;-66
2022/07/09 00:59:38;;;;;;;;;7.00;5.75;;;29.84;97717.92;;;;119010;1189;25175;-65
2022/07/09 01:02:08;;;;;;;;;7.25;7.25;;;29.84;97717.38;;;;118989;1189;25239;-66
2022/07/09 01:04:39;;;;;;;;;7.67;6.00;;;29.86;97718.50;;;;118966;1189;24838;-65
2022/07/09 01:07:07;;;;;;;;;7.25;7.25;;;29.86;97719.39;;;;118966;1188;26267;-66
2022/07/09 01:09:38;;;;;;;;;8.00;8.00;;;29.87;97719.36;;;;118948;1189;25116;-65
2022/07/09 01:12:07;;;;;;;;;8.00;8.00;;;29.86;97722.11;;;;118927;1189;25162;-65
2022/07/09 01:14:35;;;;;;;;;4.00;3.50;;;29.87;97719.70;;;;118967;1189;25500;-65
2022/07/09 01:17:05;;;;;;;;;7.33;7.33;;;29.86;97719.67;;;;118958;1188;24855;-65
2022/07/09 01:19:33;;;;;;;;;6.25;6.25;;;29.86;97720.98;;;;118936;1190;25016;-65
2022/07/09 01:22:02;;;;;;;;;7.00;6.25;;;29.86;97720.69;;;;118961;1190;25525;-65
2022/07/09 01:24:34;;;;;;;;;6.50;6.00;;;29.86;97719.86;;;;118989;1188;25395;-64
2022/07/09 01:27:02;;;;;;;;;8.00;6.00;;;29.87;97719.23;;;;118987;1189;25674;-65
2022/07/09 01:29:30;;;;;;;;;7.67;7.67;;;29.87;97721.88;;;;118981;1189;25189;-65
2022/07/09 01:31:58;;;;;;;;;8.75;8.00;;;29.87;97719.48;;;;118972;1190;25472;-65
2022/07/09 01:34:26;;;;;;;;;8.75;7.75;;;29.85;97721.83;;;;118959;1190;26053;-64
2022/07/09 01:36:54;;;;;;;;;8.25;8.25;;;29.84;97725.54;;;;118942;1190;25915;-65
2022/07/09 01:39:21;;;;;;;;;9.50;5.50;;;29.83;97721.23;;;;118996;1188;25384;-65
2022/07/09 01:41:49;;;;;;;;;4.75;4.00;;;29.82;97720.16;;;;118960;1189;25267;-65
2022/07/09 01:44:17;;;;;;;;;6.75;6.75;;;29.82;97723.77;;;;118964;1190;26203;-65
2022/07/09 01:46:45;;;;;;;;;8.00;7.25;;;29.81;97719.64;;;;118999;1190;25676;-65
2022/07/09 01:49:13;;;;;;;;;9.00;6.00;;;29.81;97721.84;;;;118976;1188;24842;-65
2022/07/09 01:51:41;;;;;;;;;2.00;2.00;;;29.82;97719.91;;;;118982;1189;25354;-65
2022/07/09 01:54:09;;;;;;;;;7.25;5.00;;;29.82;97723.84;;;;118956;1189;25318;-65
2022/07/09 01:56:36;;;;;;;;;6.50;5.50;;;29.81;97723.79;;;;118949;1189;25826;-65
2022/07/09 01:59:04;;;;;;;;;8.25;7.25;;;29.80;97726.06;;;;118956;1190;25016;-65
2022/07/09 02:01:32;;;;;;;;;7.25;7.25;;;29.80;97728.09;;;;118977;1189;24897;-65
2022/07/09 02:04:00;;;;;;;;;9.25;6.00;;;29.80;97724.60;;;;118951;1188;25397;-65
2022/07/09 02:06:28;;;;;;;;;5.50;5.50;;;29.80;97721.65;;;;118960;1189;25685;-65
2022/07/09 02:08:56;;;;;;;;;8.25;8.00;;;29.80;97722.84;;;;118978;1190;25176;-65
2022/07/09 02:11:24;;;;;;;;;8.75;7.25;;;29.79;97722.48;;;;118953;1189;25318;-65
2022/07/09 02:13:51;;;;;;;;;8.50;8.50;;;29.79;97722.41;;;;118956;1189;26902;-65
2022/07/09 02:16:19;;;;;;;;;7.25;7.25;;;29.78;97723.17;;;;118966;1189;25201;-66
2022/07/09 02:18:47;;;;;;;;;8.25;6.75;;;29.78;97721.65;;;;118987;1190;25467;-66
2022/07/09 02:21:15;;;;;;;;;8.50;7.00;;;29.78;97723.90;;;;118976;1189;25247;-66
2022/07/09 02:23:43;;;;;;;;;6.67;5.00;;;29.77;97727.27;;;;118993;1189;24833;-66
2022/07/09 02:26:11;;;;;;;;;5.00;4.25;;;29.77;97727.56;;;;118982;1189;25894;-68
2022/07/09 02:28:38;;;;;;;;;8.25;7.25;;;29.77;97727.23;;;;118970;1189;26238;-66
2022/07/09 02:31:06;;;;;;;;;9.00;6.50;;;29.77;97727.48;;;;118946;1189;24853;-65
2022/07/09 02:33:34;;;;;;;;;5.25;5.25;;;29.77;97726.42;;;;118957;1188;25301;-64
2022/07/09 02:36:05;;;;;;;;;8.00;6.50;;;29.77;97728.65;;;;118963;1189;25613;-65
2022/07/09 02:38:33;;;;;;;;;9.25;6.00;;;29.77;97729.45;;;;118980;1189;25884;-65
2022/07/09 02:41:02;;;;;;;;;7.25;7.25;;;29.77;97724.48;;;;118963;1189;25342;-66
2022/07/09 02:43:30;;;;;;;;;6.75;5.00;;;29.78;97725.42;;;;118963;1190;24951;-66
2022/07/09 02:45:58;;;;;;;;;7.25;5.00;;;29.77;97727.98;;;;118924;1190;27093;-65
2022/07/09 02:48:26;;;;;;;;;11.50;7.25;;;29.77;97730.08;;;;118981;1189;26323;-66
2022/07/09 02:50:54;;;;;;;;;6.50;5.00;;;29.77;97729.96;;;;118976;1190;24893;-66
2022/07/09 02:53:22;;;;;;;;;9.50;5.50;;;29.76;97731.17;;;;118962;1189;25426;-65
2022/07/09 02:55:50;;;;;;;;;8.00;6.25;;;29.76;97728.38;;;;118965;1189;25717;-65
2022/07/09 02:58:18;;;;;;;;;5.00;5.00;;;29.76;97730.23;;;;118965;1190;25268;-65
2022/07/09 03:00:46;;;;;;;;;7.50;7.50;;;29.76;97727.43;;;;118975;1190;24962;-65
2022/07/09 03:03:14;;;;;;;;;7.25;5.25;;;29.76;97720.87;;;;118969;1190;25681;-65
2022/07/09 03:05:42;;;;;;;;;6.50;5.25;;;29.76;97723.77;;;;119004;1188;25850;-65
2022/07/09 03:08:10;;;;;;;;;7.25;6.00;;;29.77;97726.01;;;;118971;1189;25647;-66
2022/07/09 03:10:38;;;;;;;;;6.75;5.25;;;29.76;97727.49;;;;118961;1189;26805;-65
2022/07/09 03:13:06;;;;;;;;;8.75;8.50;;;29.75;97726.66;;;;118985;1189;25794;-65
2022/07/09 03:15:39;;;;;;;;;7.00;6.25;;;29.77;97726.43;;;;118954;1189;25016;-65
2022/07/09 03:18:08;;;;;;;;;7.25;7.25;;;29.77;97725.95;;;;118953;1190;26268;-66
2022/07/09 03:20:36;;;;;;;;;5.00;5.00;;;29.77;97724.86;;;;118931;1191;25720;-65
2022/07/09 03:23:05;;;;;;;;;7.25;6.00;;;29.77;97726.73;;;;118972;1190;25155;-65
2022/07/09 03:25:33;;;;;;;;;8.00;7.00;;;29.77;97728.41;;;;118965;1189;25364;-65
2022/07/09 03:28:00;;;;;;;;;10.25;6.00;;;29.76;97727.88;;;;118977;1189;24872;-65
2022/07/09 03:30:28;;;;;;;;;6.50;6.50;;;29.75;97725.43;;;;118975;1189;25538;-65
2022/07/09 03:32:56;;;;;;;;;5.50;5.50;;;29.75;97728.16;;;;118921;1190;24754;-66
2022/07/09 03:35:24;;;;;;;;;7.75;6.00;;;29.75;97733.11;;;;118966;1189;24825;-66
2022/07/09 03:37:52;;;;;;;;;6.25;6.00;;;29.75;97733.77;;;;118985;1190;25554;-66
2022/07/09 03:40:20;;;;;;;;;9.00;7.00;;;29.75;97734.70;;;;118970;1189;25827;-65
2022/07/09 03:42:48;;;;;;;;;10.50;7.25;;;29.74;97732.95;;;;118965;1190;25282;-65
2022/07/09 03:45:16;;;;;;;;;7.50;6.75;;;29.74;97734.34;;;;118961;1189;25030;-65
2022/07/09 03:47:45;;;;;;;;;9.00;8.25;;;29.74;97736.27;;;;118975;1189;25540;-65
2022/07/09 03:50:13;;;;;;;;;6.00;6.00;;;29.74;97736.61;;;;118977;1189;24876;-65
2022/07/09 03:52:40;;;;;;;;;5.00;5.00;;;29.74;97740.80;;;;118989;1190;24972;-65
2022/07/09 03:55:09;;;;;;;;;7.25;7.25;;;29.74;97742.69;;;;118968;1189;24810;-64
2022/07/09 03:57:36;;;;;;;;;5.75;5.75;;;29.74;97743.47;;;;118942;1189;24863;-64
2022/07/09 04:00:06;;;;;;;;;6.00;6.00;;;29.75;97746.52;;;;118966;1189;25861;-65
2022/07/09 04:02:34;;;;;;;;;9.50;6.50;;;29.76;97747.58;;;;118901;1189;25165;-66
2022/07/09 04:05:02;;;;;;;;;6.75;5.00;;;29.77;97745.77;;;;118952;1189;25809;-66
2022/07/09 04:07:30;;;;;;;;;5.50;5.50;;;29.76;97746.06;;;;118954;1190;25204;-66
2022/07/09 04:09:58;;;;;;;;;7.25;6.75;;;29.76;97749.48;;;;118975;1189;24724;-65
2022/07/09 04:12:26;;;;;;;;;6.00;6.00;;;29.75;97753.20;;;;118970;1190;25260;-65
2022/07/09 04:14:53;;;;;;;;;6.00;5.00;;;29.75;97756.30;;;;118989;1190;25581;-66
2022/07/09 04:17:21;;;;;;;;;8.00;7.75;;;29.75;97757.90;;;;118976;1189;26107;-65
2022/07/09 04:19:49;;;;;;;;;10.00;8.25;;;29.75;97757.75;;;;118996;1189;25106;-66
2022/07/09 04:22:17;;;;;;;;;7.75;6.00;;;29.75;97757.21;;;;118979;1189;25559;-66
2022/07/09 04:24:45;;;;;;;;;10.33;6.67;;;29.75;97758.67;;;;118968;1190;25012;-65
2022/07/09 04:27:13;;;;;;;;;9.00;7.33;;;29.74;97758.67;;;;118946;1189;24957;-65
2022/07/09 04:29:41;;;;;;;;;8.00;6.50;;;29.74;97760.81;;;;118959;1189;25480;-65
2022/07/09 04:32:09;;;;;;;;;8.25;7.25;;;29.75;97760.27;;;;118979;1189;25216;-65
2022/07/09 04:34:37;;;;;;;;;7.50;5.00;;;29.75;97760.88;;;;118995;1189;24736;-65
2022/07/09 04:37:04;;;;;;;;;7.67;5.67;;;29.75;97762.70;;;;118971;1189;24688;-65
2022/07/09 04:39:32;;;;;;;;;7.25;7.25;;;29.75;97764.09;;;;118941;1189;25449;-65
2022/07/09 04:42:00;;;;;;;;;5.25;5.00;;;29.75;97766.71;;;;118935;1190;26113;-66
2022/07/09 04:44:28;;;;;;;;;7.25;6.25;;;29.75;97771.38;;;;118980;1189;26850;-65
2022/07/09 04:46:56;;;;;;;;;5.50;5.50;;;29.76;97776.35;;;;119011;1190;25111;-65
2022/07/09 04:49:24;;;;;;;;;5.75;5.75;;;29.77;97776.02;;;;118990;1189;24843;-66
2022/07/09 04:51:55;;;;;;;;;6.00;5.00;;;29.76;97777.22;;;;118956;1189;24846;-65
2022/07/09 04:54:23;;;;;;;;;5.33;5.33;;;29.77;97775.34;;;;118940;1190;25481;-65
2022/07/09 04:56:51;;;;;;;;;8.00;5.00;;;29.77;97778.39;;;;118991;1189;25718;-65
2022/07/09 04:59:18;;;;;;;;;6.75;6.50;;;29.77;97778.17;;;;118981;1189;26482;-65
2022/07/09 05:01:49;;;;;;;;;6.00;6.00;;;29.76;97774.55;;;;119008;1189;25303;-65
2022/07/09 05:04:17;;;;;;;;;6.00;6.00;;;29.76;97775.76;;;;118956;1189;25636;-66
2022/07/09 05:06:48;;;;;;;;;5.00;5.00;;;29.77;97777.04;;;;118984;1189;25043;-66
2022/07/09 05:09:15;;;;;;;;;6.00;6.00;;;29.77;97780.41;;;;118974;1189;25692;-66
2022/07/09 05:11:43;;;;;;;;;4.50;4.50;;;29.76;97779.50;;;;119007;1189;25130;-66
2022/07/09 05:14:12;;;;;;;;;8.00;5.25;;;29.75;97775.42;;;;118986;1190;24893;-66
2022/07/09 05:16:44;;;;;;;;;6.75;6.75;;;29.75;97775.76;;;;118972;1189;25344;-65
2022/07/09 05:19:13;;;;;;;;;8.50;7.75;;;29.77;97778.73;;;;119002;1189;25449;-66
2022/07/09 05:21:41;;;;;;;;;5.25;5.25;;;29.78;97777.32;;;;118992;1190;25699;-66
2022/07/09 05:24:09;;;;;;;;;8.00;7.67;;;29.78;97778.73;;;;118968;1190;25275;-66
2022/07/09 05:26:37;;;;;;;;;8.33;6.00;;;29.78;97780.62;;;;118991;1189;25077;-65
2022/07/09 05:29:05;;;;;;;;;8.00;4.75;;;29.78;97779.04;;;;118969;1189;24908;-66
2022/07/09 05:31:33;;;;;;;;;4.50;4.50;;;29.77;97776.89;;;;118968;1189;26219;-65
2022/07/09 05:34:03;;;;;;;;;7.33;7.00;;;29.78;97775.59;;;;118984;1190;25208;-65
2022/07/09 05:36:31;;;;;;;;;9.25;8.25;;;29.78;97773.61;;;;118970;1189;26428;-66
2022/07/09 05:39:00;;;;;;;;;6.50;6.50;;;29.79;97769.88;;;;118985;1189;24946;-65
2022/07/09 05:41:28;;;;;;;;;7.00;7.00;;;29.80;97769.48;;;;118953;1190;25597;-65
2022/07/09 05:43:56;;;;;;;;;4.00;4.00;;;29.80;97766.83;;;;118911;1188;24979;-66
2022/07/09 05:46:23;;;;;;;;;9.25;7.25;;;29.80;97765.11;;;;118911;1190;25371;-66
2022/07/09 05:48:51;;;;;;;;;8.25;8.25;;;29.80;97764.28;;;;118951;1189;25515;-65
2022/07/09 05:51:19;;;;;;;;;7.67;6.33;;;29.79;97761.52;;;;118959;1189;24816;-66
2022/07/09 05:53:47;;;;;;;;;5.50;5.50;;;29.80;97755.80;;;;118982;1189;26173;-66
2022/07/09 05:56:14;;;;;;;;;6.67;5.33;;;29.79;97756.49;;;;118989;1190;24977;-65
2022/07/09 05:58:42;;;;;;;;;10.00;8.00;;;29.79;97756.35;;;;118961;1190;25546;-65
2022/07/09 06:01:12;;;;;;;;;8.25;7.00;;;29.78;97755.61;;;;118977;1189;25144;-64
2022/07/09 06:03:42;;;;;;;;;8.50;8.25;;;29.79;97757.58;;;;118971;1189;25884;-65
2022/07/09 06:06:10;;;;;;;;;6.33;6.33;;;29.80;97754.69;;;;119001;1190;25347;-65
2022/07/09 06:08:38;;;;;;;;;8.75;6.50;;;29.80;97757.17;;;;118986;1190;25804;-66
2022/07/09 06:11:06;;;;;;;;;7.25;5.50;;;29.80;97753.56;;;;118970;1189;25148;-67
2022/07/09 06:13:34;;;;;;;;;6.00;6.00;;;29.79;97757.00;;;;118940;1189;25005;-65
2022/07/09 06:16:02;;;;;;;;;8.50;5.50;;;29.79;97755.42;;;;118987;1189;25485;-65
2022/07/09 06:18:30;;;;;;;;;7.75;6.00;;;29.79;97753.14;;;;118973;1188;25466;-65
2022/07/09 06:20:58;;;;;;;;;6.75;6.75;;;29.79;97749.51;;;;118943;1189;26367;-65
2022/07/09 06:23:26;;;;;;;;;8.00;8.00;;;29.78;97747.48;;;;118982;1190;25332;-65
2022/07/09 06:25:54;;;;;;;;;9.25;6.25;;;29.79;97748.45;;;;118961;1189;26154;-65
2022/07/09 06:28:22;;;;;;;;;5.50;5.50;;;29.80;97749.73;;;;118969;1189;25693;-66
2022/07/09 06:30:50;;;;;;;;;8.67;8.00;;;29.81;97748.52;;;;118954;1189;24944;-65
2022/07/09 06:33:18;;;;;;;;;9.25;8.50;;;29.80;97751.02;;;;118957;1189;25560;-66
2022/07/09 06:35:46;;;;;;;;;6.75;6.75;;;29.81;97750.73;;;;118928;1189;25376;-65
2022/07/09 06:38:14;;;;;;;;;6.50;6.50;;;29.80;97753.14;;;;118962;1189;26273;-65
2022/07/09 06:40:42;;;;;;;;;7.75;6.25;;;29.80;97750.98;;;;118967;1190;25635;-66
2022/07/09 06:43:11;;;;;;;;;6.50;6.25;;;29.81;97752.91;;;;118989;1189;25136;-65
2022/07/09 06:45:42;;;;;;;;;5.00;5.00;;;29.81;97756.20;;;;118958;1190;25049;-66
2022/07/09 06:48:09;;;;;;;;;9.00;7.25;;;29.82;97757.92;;;;118976;1189;25120;-66
2022/07/09 06:50:37;;;;;;;;;7.75;6.00;;;29.82;97751.19;;;;118951;1189;25052;-66
2022/07/09 06:53:05;;;;;;;;;7.75;7.25;;;29.81;97752.14;;;;118986;1188;25439;-63
2022/07/09 06:55:33;;;;;;;;;8.00;8.00;;;29.81;97750.14;;;;118924;1190;25911;-63
2022/07/09 06:58:01;;;;;;;;;6.00;6.00;;;29.82;97746.95;;;;118930;1190;25462;-66
2022/07/09 07:00:29;;;;;;;;;7.50;7.25;;;29.81;97743.34;;;;118981;1189;25689;-66
2022/07/09 07:02:59;;;;;;;;;8.00;6.25;;;29.80;97742.02;;;;118990;1189;25471;-65
2022/07/09 07:05:27;;;;;;;;;6.75;6.75;;;29.81;97742.13;;;;118964;1189;25891;-65
2022/07/09 07:07:55;;;;;;;;;8.00;6.00;;;29.82;97740.11;;;;118944;1189;24855;-65
2022/07/09 07:10:23;;;;;;;;;7.25;7.25;;;29.82;97743.52;;;;118961;1189;25555;-65
2022/07/09 07:12:51;;;;;;;;;8.75;8.75;;;29.82;97742.92;;;;118971;1189;26234;-65
2022/07/09 07:15:19;;;;;;;;;8.75;5.00;;;29.82;97743.89;;;;118971;1189;25739;-66
2022/07/09 07:17:48;;;;;;;;;6.00;6.00;;;29.81;97746.85;;;;118975;1189;26213;-66
2022/07/09 07:20:24;;;;;;;;;10.50;7.50;;;29.83;97750.21;;;;118973;1190;25987;-66
2022/07/09 07:22:52;;;;;;;;;6.00;6.00;;;29.84;97746.08;;;;118984;1189;25516;-66
2022/07/09 07:25:20;;;;;;;;;7.25;6.00;;;29.84;97742.54;;;;118993;1190;25628;-67
2022/07/09 07:27:49;;;;;;;;;8.25;8.25;;;29.83;97742.56;;;;118979;1189;25491;-68
2022/07/09 07:30:17;;;;;;;;;5.50;4.00;;;29.83;97746.69;;;;118973;1189;25422;-66
2022/07/09 07:32:45;;;;;;;;;11.25;8.50;;;29.83;97749.06;;;;118983;1189;25049;-66
2022/07/09 07:35:12;;;;;;;;;8.75;8.75;;;29.82;97751.33;;;;118994;1188;25600;-66
2022/07/09 07:37:40;;;;;;;;;12.00;10.00;;;29.82;97750.84;;;;118976;1190;25852;-66
2022/07/09 07:40:09;;;;;;;;;11.00;9.50;;;29.83;97753.89;;;;118962;1189;25364;-66
2022/07/09 07:42:38;;;;;;;;;10.00;9.00;;;29.83;97750.14;;;;118975;1190;25175;-65
2022/07/09 07:45:07;;;;;;;;;12.50;11.25;;;29.83;97751.85;;;;118972;1189;24708;-65
2022/07/09 07:47:34;;;;;;;;;13.25;9.00;;;29.84;97751.95;;;;119003;1189;25576;-65
2022/07/09 07:50:03;;;;;;;;;10.50;10.50;;;29.84;97749.92;;;;118965;1189;25599;-65
2022/07/09 07:52:32;;;;;;;;;12.00;11.50;;;29.84;97749.19;;;;118974;1189;26452;-66
2022/07/09 07:54:59;;;;;;;;;16.00;11.00;;;29.84;97749.65;;;;118980;1190;25782;-65
2022/07/09 07:57:27;;;;;;;;;20.50;17.00;;;29.84;97746.31;;;;118970;1189;25133;-65
2022/07/09 07:59:55;;;;;;;;;13.50;12.75;;;29.84;97747.69;;;;119004;1189;25013;-64
2022/07/09 08:02:23;;;;;;;;;15.25;14.25;;;29.83;97744.29;;;;119003;1190;25522;-64
2022/07/09 08:04:51;;;;;;;;;11.00;10.67;;;29.84;97741.66;;;;118961;1188;25336;-65
2022/07/09 08:07:19;;;;;;;;;11.50;11.50;;;29.83;97742.16;;;;118950;1189;24939;-65
2022/07/09 08:09:47;;;;;;;;;11.75;11.25;;;29.82;97741.06;;;;118995;1189;25709;-65
2022/07/09 08:12:14;;;;;;;;;13.50;10.75;;;29.82;97743.50;;;;118994;1190;24919;-65
2022/07/09 08:14:42;;;;;;;;;14.67;12.00;;;29.82;97740.70;;;;118995;1189;26858;-65
2022/07/09 08:17:10;;;;;;;;;10.00;10.00;;;29.82;97740.20;;;;118997;1189;25196;-65
2022/07/09 08:19:38;;;;;;;;;16.50;14.25;;;29.82;97737.55;;;;118995;1189;25097;-65
2022/07/09 08:22:06;;;;;;;;;13.75;10.75;;;29.82;97738.08;;;;118983;1190;25567;-65
2022/07/09 08:24:33;;;;;;;;;13.00;13.00;;;29.82;97737.23;;;;118942;1189;26280;-66
2022/07/09 08:27:02;;;;;;;;;15.75;9.50;;;29.82;97740.19;;;;118954;1189;25030;-64
2022/07/09 08:29:29;;;;;;;;;11.75;10.00;;;29.82;97737.39;;;;118972;1188;25700;-65
2022/07/09 08:31:57;;;;;;;;;11.50;10.00;;;29.82;97735.64;;;;118972;1189;24824;-65
2022/07/09 08:34:26;;;;;;;;;17.00;15.50;;;29.82;97737.56;;;;118965;1189;25503;-65
2022/07/09 08:36:54;;;;;;;;;11.00;11.00;;;29.83;97729.24;;;;119000;1189;25669;-65
2022/07/09 08:39:22;;;;;;;;;14.25;13.25;;;29.82;97736.32;;;;118949;1189;25341;-65
2022/07/09 08:41:50;;;;;;;;;15.50;13.00;;;29.82;97735.95;;;;118947;1189;25649;-65
2022/07/09 08:44:20;;;;;;;;;17.50;15.75;;;29.82;97730.23;;;;119012;1189;25011;-65
2022/07/09 08:46:48;;;;;;;;;16.33;12.67;;;29.84;97731.15;;;;118909;1190;26275;-65
2022/07/09 08:49:16;;;;;;;;;15.00;13.75;;;29.83;97734.16;;;;118979;1190;25054;-66
2022/07/09 08:51:44;;;;;;;;;16.33;14.67;;;29.83;97736.34;;;;118978;1190;26153;-65
2022/07/09 08:54:13;;;;;;;;;16.67;16.67;;;29.83;97735.65;;;;118963;1189;25415;-65
2022/07/09 08:56:41;;;;;;;;;20.25;17.25;;;29.83;97735.44;;;;118920;1190;25900;-65
2022/07/09 08:59:09;;;;;;;;;16.67;14.00;;;29.84;97740.49;;;;118925;1191;25570;-65
2022/07/09 09:01:37;;;;;;;;;15.75;13.50;;;29.84;97738.39;;;;118964;1190;25359;-65
2022/07/09 09:04:06;;;;;;;;;17.00;14.00;;;29.83;97734.05;;;;118986;1189;25053;-66
2022/07/09 09:06:38;;;;;;;;;17.67;16.67;;;29.83;97731.63;;;;118982;1190;25563;-65
2022/07/09 09:09:18;;;;;;;;;14.75;13.50;;;29.85;97738.13;;;;118946;1190;26081;-65
2022/07/09 09:11:49;;;;;;;;;15.25;12.25;;;29.89;97734.70;;;;118984;1190;24966;-65
2022/07/09 09:14:22;;;;;;;;;21.00;14.75;;;29.89;97731.83;;;;118984;1189;25126;-65
2022/07/09 09:16:50;;;;;;;;;20.25;17.50;;;29.89;97729.63;;;;118972;1189;25139;-65
2022/07/09 09:19:18;;;;;;;;;15.33;13.67;;;29.88;97734.96;;;;118950;1189;25234;-66
2022/07/09 09:21:51;;;;;;;;;20.75;16.75;;;29.87;97731.70;;;;118969;1189;25722;-66
2022/07/09 09:24:23;;;;;;;;;18.25;15.50;;;29.87;97729.64;;;;118955;1189;25062;-65
2022/07/09 09:26:51;;;;;;;;;18.75;15.75;;;29.88;97728.46;;;;118963;1189;24717;-65
2022/07/09 09:29:19;;;;;;;;;17.25;13.00;;;29.88;97731.30;;;;118962;1190;25560;-65
2022/07/09 09:31:48;;;;;;;;;20.75;16.50;;;29.88;97727.46;;;;118957;1189;25061;-64
2022/07/09 09:34:17;;;;;;;;;18.25;14.75;;;29.87;97726.13;;;;119008;1189;25235;-65
2022/07/09 09:36:54;;;;;;;;;17.50;15.50;;;29.86;97726.74;;;;119002;1188;25664;-66
2022/07/09 09:39:30;;;;;;;;;14.50;12.50;;;29.90;97724.23;;;;118983;1190;24863;-66
2022/07/09 09:42:00;;;;;;;;;19.75;15.75;;;29.92;97722.63;;;;118984;1189;25836;-66
2022/07/09 09:44:36;;;;;;;;;17.25;12.25;;;29.91;97724.98;;;;118980;1189;25015;-66
2022/07/09 09:47:06;;;;;;;;;18.00;15.75;;;29.93;97723.27;;;;118972;1189;24803;-66
2022/07/09 09:49:37;;;;;;;;;13.75;13.75;;;29.93;97721.23;;;;118979;1189;25875;-65
2022/07/09 09:52:07;;;;;;;;;18.25;15.50;;;29.93;97716.48;;;;118975;1190;26098;-65
2022/07/09 09:54:38;;;;;;;;;16.67;13.67;;;29.92;97713.85;;;;118990;1189;24947;-65
2022/07/09 09:57:09;;;;;;;;;13.50;13.50;;;29.92;97708.89;;;;118996;1189;26086;-65
2022/07/09 09:59:41;;;;;;;;;15.25;11.50;;;29.92;97708.48;;;;119001;1189;24867;-65
2022/07/09 10:02:10;;;;;;;;;15.00;15.00;;;29.91;97705.96;;;;119001;1189;25502;-66
2022/07/09 10:04:43;;;;;;;;;18.75;13.25;;;29.91;97702.24;;;;119010;1188;26317;-65
2022/07/09 10:07:13;;;;;;;;;14.00;14.00;;;29.90;97703.82;;;;118990;1189;26431;-65
2022/07/09 10:09:52;;;;;;;;;14.75;9.25;;;29.89;97701.99;;;;118922;1190;25569;-64
2022/07/09 10:12:27;;;;;;;;;22.75;15.50;;;29.91;97703.08;;;;118906;1190;26204;-64
2022/07/09 10:14:56;;;;;;;;;11.50;11.50;;;29.92;97700.17;;;;118959;1189;24957;-64
2022/07/09 10:17:25;;;;;;;;;16.00;13.50;;;29.91;97695.23;;;;118986;1189;25602;-65
2022/07/09 10:20:03;;;;;;;;;14.00;14.00;;;29.90;97692.95;;;;118999;1189;25783;-65
2022/07/09 10:22:40;;;;;;;;;17.75;14.25;;;29.92;97690.14;;;;118976;1189;24801;-64
2022/07/09 10:25:10;;;;;;;;;14.75;12.25;;;29.92;97689.90;;;;118996;1189;26698;-65
2022/07/09 10:27:45;;;;;;;;;15.50;13.75;;;29.90;97684.50;;;;118948;1190;25186;-65
2022/07/09 10:30:26;;;;;;;;;12.25;11.25;;;29.91;97678.61;;;;118896;1190;25171;-66
2022/07/09 10:33:24;;;;;;;;;14.50;13.00;;;29.92;97678.67;;;;118997;1190;24864;-65
2022/07/09 10:35:53;;;;;;;;;12.25;12.25;;;29.99;97675.08;;;;118951;1189;24965;-66
2022/07/09 10:38:24;;;;;;;;;15.00;12.25;;;29.97;97674.39;;;;118969;1190;26186;-66
2022/07/09 10:40:59;;;;;;;;;12.00;12.00;;;29.95;97674.51;;;;118977;1188;24886;-66
2022/07/09 10:43:46;;;;;;;;;14.00;12.75;;;29.93;97675.16;;;;118947;1189;25273;-66
2022/07/09 10:46:14;;;;;;;;;12.75;12.75;;;29.94;97673.47;;;;118940;1189;25980;-65
2022/07/09 10:48:45;;;;;;;;;16.33;12.33;;;29.93;97669.55;;;;118967;1189;24762;-66
2022/07/09 10:51:20;;;;;;;;;14.25;12.75;;;29.92;97665.23;;;;118926;1190;25935;-67
2022/07/09 10:53:48;;;;;;;;;12.75;11.75;;;29.92;97662.55;;;;118978;1189;25248;-66
2022/07/09 10:56:18;;;;;;;;;11.25;10.00;;;29.89;97659.08;;;;118977;1189;25750;-66
2022/07/09 10:58:47;;;;;;;;;15.75;13.50;;;29.89;97652.09;;;;118987;1188;24969;-66
2022/07/09 11:01:27;;;;;;;;;16.75;12.25;;;29.89;97649.48;;;;118977;1189;24768;-66
2022/07/09 11:03:55;;;;;;;;;11.00;11.00;;;29.94;97651.52;;;;118977;1189;25543;-65
2022/07/09 11:06:23;;;;;;;;;14.25;14.25;;;29.93;97647.57;;;;118966;1189;25089;-64
2022/07/09 11:08:51;;;;;;;;;13.50;10.00;;;29.92;97644.96;;;;118915;1189;25720;-65
2022/07/09 11:11:24;;;;;;;;;17.00;15.75;;;29.91;97647.73;;;;118954;1190;24780;-65
2022/07/09 11:13:55;;;;;;;;;15.33;12.33;;;29.90;97644.22;;;;118984;1190;25415;-66
2022/07/09 11:16:24;;;;;;;;;17.50;12.00;;;29.92;97635.21;;;;118972;1189;25670;-65
2022/07/09 11:18:53;;;;;;;;;13.75;11.50;;;29.92;97634.10;;;;118974;1190;25271;-66
2022/07/09 11:21:24;;;;;;;;;14.25;13.50;;;29.93;97628.04;;;;118983;1189;25670;-65
2022/07/09 11:23:52;;;;;;;;;10.75;10.75;;;29.93;97629.35;;;;118961;1190;25256;-65
2022/07/09 11:26:20;;;;;;;;;13.75;12.00;;;29.93;97627.88;;;;118988;1190;25385;-65
2022/07/09 11:28:48;;;;;;;;;15.50;13.00;;;29.92;97629.73;;;;118992;1189;25099;-65
2022/07/09 11:31:17;;;;;;;;;11.75;11.25;;;29.91;97622.27;;;;118976;1189;25223;-65
2022/07/09 11:36:38;;;;;;;;;11.67;10.33;;;29.92;97615.69;;;;118984;1189;25074;-65
2022/07/09 11:39:06;;;;;;;;;10.33;10.33;;;29.92;97614.25;;;;118940;1190;26187;-66
2022/07/09 11:41:44;;;;;;;;;11.25;11.00;;;29.91;97611.67;;;;118999;1190;25567;-66
2022/07/09 11:44:20;;;;;;;;;13.00;11.50;;;29.93;97604.52;;;;118997;1190;25414;-66
2022/07/09 11:47:10;;;;;;;;;12.00;10.00;;;29.95;97602.06;;;;118993;1189;25551;-65
2022/07/09 11:49:40;;;;;;;;;10.00;9.50;;;29.97;97599.27;;;;118951;1189;25621;-65
2022/07/09 11:52:18;;;;;;;;;15.50;11.50;;;29.95;97601.52;;;;118974;1189;24955;-66
2022/07/09 11:55:06;;;;;;;;;16.25;11.00;;;29.95;97595.59;;;;118961;1189;25872;-66
2022/07/09 11:57:36;;;;;;;;;14.75;13.50;;;29.96;97590.73;;;;118968;1189;25336;-66
2022/07/09 12:00:06;;;;;;;;;11.33;9.33;;;29.94;97588.20;;;;118975;1190;25562;-65
2022/07/09 12:02:36;;;;;;;;;14.75;10.75;;;29.94;97583.80;;;;118958;1189;25635;-65
2022/07/09 12:05:11;;;;;;;;;11.00;10.00;;;29.95;97582.64;;;;118983;1189;25626;-65
2022/07/09 12:07:39;;;;;;;;;12.67;12.00;;;29.97;97579.00;;;;118991;1190;24910;-65
2022/07/09 12:10:10;;;;;;;;;13.25;11.00;;;29.96;97572.25;;;;118961;1189;25442;-65
2022/07/09 12:12:38;;;;;;;;;14.67;11.33;;;29.96;97574.73;;;;118980;1189;25498;-65